Time;durP1;ratioP1;P1;durP2;ratioP2;P2;SDS_P1;SDS_P2;PMS_P1;PMS_P2;Temp;Humidity;BMP_temperature;BMP_pressure;BME280_temperature;BME280_humidity;BME280_pressure;Samples;Min_cycle;Max_cycle;Signal;HPM_P1;HPM_P2
2021/05/24 00:00:31;;;;;;;7.03;2.20;;;;;;;;;;4993266;28;20074;-62
2021/05/24 00:03:16;;;;;;;3.78;1.58;;;;;;;;;;4999867;28;20065;-63
2021/05/24 00:06:02;;;;;;;2.05;1.70;;;;;;;;;;5013202;28;20045;-62
2021/05/24 00:08:47;;;;;;;3.83;1.55;;;;;;;;;;5013031;28;20054;-62
2021/05/24 00:11:32;;;;;;;4.75;1.65;;;;;;;;;;5012653;28;20192;-62
2021/05/24 00:14:20;;;;;;;3.53;1.65;;;;;;;;;;5009555;28;20045;-62
2021/05/24 00:17:06;;;;;;;3.83;1.63;;;;;;;;;;5013111;28;20112;-62
2021/05/24 00:19:51;;;;;;;6.50;1.40;;;;;;;;;;5012460;28;20548;-62
2021/05/24 00:22:39;;;;;;;2.95;1.50;;;;;;;;;;5012928;28;20077;-62
2021/05/24 00:25:24;;;;;;;2.38;1.30;;;;;;;;;;4995460;28;20051;-62
2021/05/24 00:28:13;;;;;;;3.22;1.50;;;;;;;;;;4992963;28;20042;-62
2021/05/24 00:30:58;;;;;;;5.43;1.65;;;;;;;;;;4992838;28;20050;-62
2021/05/24 00:33:44;;;;;;;5.57;1.95;;;;;;;;;;4993505;28;20097;-62
2021/05/24 00:36:29;;;;;;;4.30;1.90;;;;;;;;;;5012438;28;20046;-62
2021/05/24 00:39:14;;;;;;;6.72;2.28;;;;;;;;;;5012585;28;20045;-62
2021/05/24 00:42:00;;;;;;;4.35;1.65;;;;;;;;;;5012470;28;20409;-63
2021/05/24 00:44:45;;;;;;;2.95;1.60;;;;;;;;;;5005150;28;20126;-63
2021/05/24 00:47:30;;;;;;;4.22;2.30;;;;;;;;;;4992975;28;20042;-63
2021/05/24 00:50:16;;;;;;;4.32;2.20;;;;;;;;;;4992162;28;20047;-63
2021/05/24 00:53:01;;;;;;;6.22;2.47;;;;;;;;;;4992828;28;20054;-62
2021/05/24 00:55:46;;;;;;;4.20;1.92;;;;;;;;;;5004213;28;20081;-62
2021/05/24 00:58:32;;;;;;;7.45;2.97;;;;;;;;;;5012377;28;20049;-63
2021/05/24 01:01:17;;;;;;;4.10;2.13;;;;;;;;;;5011835;28;20097;-63
2021/05/24 01:04:03;;;;;;;3.45;2.17;;;;;;;;;;5012268;28;20116;-63
2021/05/24 01:06:48;;;;;;;6.10;2.25;;;;;;;;;;4994908;28;20543;-63
2021/05/24 01:09:34;;;;;;;4.82;1.85;;;;;;;;;;4992359;28;20146;-63
2021/05/24 01:12:19;;;;;;;4.75;2.08;;;;;;;;;;4992764;28;20073;-63
2021/05/24 01:15:06;;;;;;;3.75;2.42;;;;;;;;;;4992702;28;20506;-63
2021/05/24 01:17:54;;;;;;;4.50;2.00;;;;;;;;;;5012099;28;20140;-63
2021/05/24 01:20:39;;;;;;;4.72;3.10;;;;;;;;;;5011795;28;20038;-63
2021/05/24 01:23:28;;;;;;;4.75;2.20;;;;;;;;;;5012198;28;20076;-63
2021/05/24 01:26:14;;;;;;;6.13;2.50;;;;;;;;;;5005283;28;20051;-63
2021/05/24 01:28:59;;;;;;;3.97;1.92;;;;;;;;;;4992691;28;20104;-63
2021/05/24 01:31:44;;;;;;;4.95;2.20;;;;;;;;;;4992216;28;20492;-63
2021/05/24 01:34:30;;;;;;;6.43;1.95;;;;;;;;;;4992435;28;20137;-63
2021/05/24 01:37:15;;;;;;;3.08;2.05;;;;;;;;;;5004313;28;20049;-63
2021/05/24 01:40:01;;;;;;;4.38;2.10;;;;;;;;;;5011628;28;20049;-63
2021/05/24 01:42:46;;;;;;;7.15;2.00;;;;;;;;;;5011970;28;20492;-63
2021/05/24 01:45:32;;;;;;;6.20;2.00;;;;;;;;;;5012013;28;20116;-63
2021/05/24 01:48:17;;;;;;;5.07;2.28;;;;;;;;;;4993907;28;20043;-62
2021/05/24 01:51:03;;;;;;;3.13;1.73;;;;;;;;;;4992022;28;20047;-63
2021/05/24 01:53:48;;;;;;;5.20;1.50;;;;;;;;;;4993476;28;20046;-63
2021/05/24 01:56:33;;;;;;;9.32;2.33;;;;;;;;;;4992329;28;20048;-63
2021/05/24 01:59:19;;;;;;;5.78;2.13;;;;;;;;;;4992243;28;20045;-63
2021/05/24 02:02:05;;;;;;;5.97;2.10;;;;;;;;;;4992684;28;20042;-63
2021/05/24 02:04:50;;;;;;;3.83;1.98;;;;;;;;;;4982277;28;20042;-63
2021/05/24 02:07:35;;;;;;;20.67;2.15;;;;;;;;;;4996383;28;20056;-63
2021/05/24 02:10:25;;;;;;;3.00;2.03;;;;;;;;;;4975912;28;20430;-63
2021/05/24 02:13:12;;;;;;;4.10;2.50;;;;;;;;;;4975352;28;20088;-63
2021/05/24 02:15:58;;;;;;;5.70;2.10;;;;;;;;;;4994773;28;20046;-63
2021/05/24 02:18:57;;;;;;;4.93;2.53;;;;;;;;;;4995734;28;20074;-63
2021/05/24 02:21:42;;;;;;;2.67;1.98;;;;;;;;;;4995333;28;20661;-63
2021/05/24 02:24:28;;;;;;;3.58;2.10;;;;;;;;;;5000455;28;20100;-63
2021/05/24 02:27:13;;;;;;;4.47;2.30;;;;;;;;;;5014970;28;20052;-63
2021/05/24 02:29:59;;;;;;;3.63;2.22;;;;;;;;;;5014514;28;20052;-63
2021/05/24 02:32:44;;;;;;;4.20;2.42;;;;;;;;;;5015033;28;20054;-63
2021/05/24 02:35:30;;;;;;;5.80;2.88;;;;;;;;;;5003956;28;20054;-63
2021/05/24 02:38:15;;;;;;;4.53;2.28;;;;;;;;;;4995213;28;20046;-63
2021/05/24 02:41:00;;;;;;;4.85;2.13;;;;;;;;;;4994792;28;20053;-63
2021/05/24 02:43:46;;;;;;;6.40;2.63;;;;;;;;;;4995189;28;20046;-63
2021/05/24 02:46:31;;;;;;;5.00;2.38;;;;;;;;;;5011178;28;20076;-63
2021/05/24 02:49:17;;;;;;;5.68;2.25;;;;;;;;;;5014506;28;20053;-63
2021/05/24 02:52:02;;;;;;;10.02;2.50;;;;;;;;;;5014552;28;20045;-63
2021/05/24 02:54:48;;;;;;;4.25;2.20;;;;;;;;;;5014547;28;20068;-63
2021/05/24 02:57:33;;;;;;;4.65;2.63;;;;;;;;;;4975359;28;20535;-63
2021/05/24 03:00:19;;;;;;;6.07;2.42;;;;;;;;;;4974888;28;20066;-63
2021/05/24 03:03:04;;;;;;;4.10;2.15;;;;;;;;;;4975474;28;20046;-63
2021/05/24 03:05:49;;;;;;;5.13;2.10;;;;;;;;;;4985202;28;20048;-63
2021/05/24 03:08:35;;;;;;;6.05;3.13;;;;;;;;;;5014399;28;20120;-62
2021/05/24 03:11:22;;;;;;;5.60;2.15;;;;;;;;;;5013747;28;20049;-63
2021/05/24 03:14:07;;;;;;;3.88;2.00;;;;;;;;;;5013775;28;20053;-63
2021/05/24 03:16:53;;;;;;;3.75;2.22;;;;;;;;;;5003238;28;20432;-63
2021/05/24 03:19:38;;;;;;;5.57;2.00;;;;;;;;;;4994152;28;20047;-63
2021/05/24 03:22:24;;;;;;;9.50;2.20;;;;;;;;;;4994392;28;20054;-63
2021/05/24 03:25:09;;;;;;;2.85;1.70;;;;;;;;;;4994394;28;20054;-63
2021/05/24 03:27:55;;;;;;;4.47;1.90;;;;;;;;;;5010276;28;20037;-63
2021/05/24 03:30:40;;;;;;;3.90;1.85;;;;;;;;;;5013397;28;20173;-63
2021/05/24 03:33:26;;;;;;;6.35;1.67;;;;;;;;;;5013626;28;20554;-63
2021/05/24 03:36:11;;;;;;;3.67;1.45;;;;;;;;;;5013825;28;20155;-63
2021/05/24 03:38:56;;;;;;;4.93;1.50;;;;;;;;;;4999761;28;20058;-63
2021/05/24 03:41:42;;;;;;;3.65;1.60;;;;;;;;;;4993590;28;20068;-63
2021/05/24 03:44:27;;;;;;;4.18;1.35;;;;;;;;;;4993801;28;20555;-63
2021/05/24 03:47:13;;;;;;;4.55;1.17;;;;;;;;;;4998582;28;20076;-63
2021/05/24 03:49:58;;;;;;;3.15;0.95;;;;;;;;;;5011371;28;20048;-63
2021/05/24 03:52:44;;;;;;;3.83;1.25;;;;;;;;;;4974495;28;20047;-63
2021/05/24 03:55:29;;;;;;;3.08;1.23;;;;;;;;;;4974318;28;20077;-63
2021/05/24 03:58:14;;;;;;;2.22;1.05;;;;;;;;;;4974322;28;20057;-63
2021/05/24 04:00:59;;;;;;;3.50;1.33;;;;;;;;;;4985592;28;20075;-63
2021/05/24 04:03:45;;;;;;;3.00;0.95;;;;;;;;;;5013220;28;20167;-63
2021/05/24 04:06:30;;;;;;;3.25;1.25;;;;;;;;;;5013193;28;20463;-63
2021/05/24 04:09:15;;;;;;;3.15;1.10;;;;;;;;;;5008555;28;20042;-63
2021/05/24 04:12:01;;;;;;;1.88;0.90;;;;;;;;;;4993426;28;20092;-63
2021/05/24 04:14:46;;;;;;;2.55;0.90;;;;;;;;;;4993341;28;20165;-63
2021/05/24 04:17:36;;;;;;;2.67;0.90;;;;;;;;;;4993330;28;20076;-63
2021/05/24 04:20:22;;;;;;;4.18;1.00;;;;;;;;;;4994013;28;20120;-63
2021/05/24 04:23:07;;;;;;;3.05;1.08;;;;;;;;;;4991970;28;20049;-63
2021/05/24 04:25:53;;;;;;;4.55;1.10;;;;;;;;;;4992450;28;20084;-63
2021/05/24 04:28:38;;;;;;;2.70;0.98;;;;;;;;;;4993119;28;20054;-63
2021/05/24 04:31:24;;;;;;;3.38;1.15;;;;;;;;;;4992940;28;20062;-63
2021/05/24 04:34:09;;;;;;;3.22;1.00;;;;;;;;;;4993476;28;20050;-61
2021/05/24 04:36:54;;;;;;;1.70;0.85;;;;;;;;;;4993053;28;20049;-61
2021/05/24 04:39:43;;;;;;;5.03;1.30;;;;;;;;;;4992741;28;20259;-62
2021/05/24 04:42:28;;;;;;;3.88;0.90;;;;;;;;;;4973624;28;20047;-61
2021/05/24 04:45:14;;;;;;;2.10;1.08;;;;;;;;;;4973510;28;20046;-61
2021/05/24 04:47:59;;;;;;;4.43;1.40;;;;;;;;;;4973514;28;20133;-62
2021/05/24 04:50:44;;;;;;;6.20;1.10;;;;;;;;;;4983034;28;20459;-62
2021/05/24 04:53:30;;;;;;;1.98;0.82;;;;;;;;;;5012432;28;20100;-61
2021/05/24 04:56:16;;;;;;;3.08;1.10;;;;;;;;;;5012237;28;20224;-61
2021/05/24 04:59:01;;;;;;;1.65;0.98;;;;;;;;;;5012288;28;20041;-61
2021/05/24 05:01:47;;;;;;;2.45;0.88;;;;;;;;;;5001499;28;20074;-62
2021/05/24 05:04:32;;;;;;;3.15;1.38;;;;;;;;;;4992663;28;20042;-63
2021/05/24 05:07:18;;;;;;;3.30;1.52;;;;;;;;;;4992609;28;20057;-61
2021/05/24 05:10:03;;;;;;;4.30;1.38;;;;;;;;;;4992332;28;20173;-63
2021/05/24 05:12:48;;;;;;;4.57;1.00;;;;;;;;;;5008415;28;20053;-63
2021/05/24 05:15:34;;;;;;;3.55;1.05;;;;;;;;;;5012172;28;20046;-61
2021/05/24 05:18:20;;;;;;;4.63;1.35;;;;;;;;;;5012363;28;20397;-61
2021/05/24 05:21:05;;;;;;;2.15;1.10;;;;;;;;;;5012001;28;20088;-63
2021/05/24 05:23:50;;;;;;;3.72;1.42;;;;;;;;;;4973109;28;20061;-63
2021/05/24 05:26:36;;;;;;;5.28;1.20;;;;;;;;;;4958584;28;20069;-61
2021/05/24 05:29:21;;;;;;;1.92;1.00;;;;;;;;;;4972879;28;20042;-63
2021/05/24 05:32:06;;;;;;;4.57;1.17;;;;;;;;;;4998892;23;20041;-62
2021/05/24 05:34:52;;;;;;;3.45;1.05;;;;;;;;;;4992369;28;20416;-62
2021/05/24 05:37:37;;;;;;;4.40;1.10;;;;;;;;;;4995155;28;20046;-62
2021/05/24 05:40:23;;;;;;;3.53;1.13;;;;;;;;;;4996256;28;20049;-62
2021/05/24 05:43:09;;;;;;;1.85;1.05;;;;;;;;;;5004487;28;20057;-62
2021/05/24 05:45:54;;;;;;;4.68;1.20;;;;;;;;;;4996277;28;20101;-62
2021/05/24 05:48:39;;;;;;;3.25;1.25;;;;;;;;;;4996249;28;20064;-62
2021/05/24 05:51:25;;;;;;;4.25;1.20;;;;;;;;;;4995976;28;20042;-62
2021/05/24 05:54:10;;;;;;;2.38;1.05;;;;;;;;;;5011367;28;20168;-62
2021/05/24 05:56:56;;;;;;;4.82;1.10;;;;;;;;;;5015309;28;20504;-62
2021/05/24 05:59:41;;;;;;;4.22;1.20;;;;;;;;;;5015481;28;20504;-62
2021/05/24 06:02:27;;;;;;;4.05;1.17;;;;;;;;;;5015578;28;20057;-63
2021/05/24 06:05:13;;;;;;;3.47;1.08;;;;;;;;;;4976293;28;20047;-62
2021/05/24 06:07:59;;;;;;;4.10;1.30;;;;;;;;;;4976433;28;20137;-62
2021/05/24 06:10:44;;;;;;;3.58;1.00;;;;;;;;;;4975997;28;20050;-62
2021/05/24 06:13:29;;;;;;;3.72;1.10;;;;;;;;;;4981477;28;20046;-62
2021/05/24 06:16:15;;;;;;;2.40;0.90;;;;;;;;;;4995553;28;20042;-62
2021/05/24 06:19:01;;;;;;;2.65;0.90;;;;;;;;;;4995685;28;20050;-62
2021/05/24 06:21:46;;;;;;;4.40;1.20;;;;;;;;;;4995380;28;20455;-62
2021/05/24 06:24:31;;;;;;;2.15;1.20;;;;;;;;;;5005214;28;20127;-63
2021/05/24 06:27:17;;;;;;;2.58;0.80;;;;;;;;;;5014999;28;20045;-62
2021/05/24 06:30:03;;;;;;;4.28;1.10;;;;;;;;;;5014864;28;20057;-62
2021/05/24 06:32:48;;;;;;;2.70;1.10;;;;;;;;;;5014904;28;20056;-63
2021/05/24 06:35:34;;;;;;;3.42;1.08;;;;;;;;;;5014352;28;20049;-61
2021/05/24 06:38:19;;;;;;;3.28;0.93;;;;;;;;;;5014757;28;20045;-62
2021/05/24 06:41:05;;;;;;;2.33;1.00;;;;;;;;;;5013263;28;20064;-62
2021/05/24 06:43:50;;;;;;;3.83;0.85;;;;;;;;;;5014671;28;20069;-62
2021/05/24 06:46:35;;;;;;;2.55;1.00;;;;;;;;;;5003022;28;20060;-62
2021/05/24 06:49:20;;;;;;;2.08;0.68;;;;;;;;;;5013970;28;20049;-62
2021/05/24 06:52:06;;;;;;;2.55;0.88;;;;;;;;;;4999557;28;20039;-62
2021/05/24 06:54:51;;;;;;;2.83;0.50;;;;;;;;;;4994910;28;20058;-62
2021/05/24 06:57:36;;;;;;;3.30;1.23;;;;;;;;;;4994930;28;20129;-62
2021/05/24 07:00:22;;;;;;;3.38;0.80;;;;;;;;;;4996102;28;20112;-62
2021/05/24 07:03:07;;;;;;;1.23;0.50;;;;;;;;;;4998924;28;20073;-62
2021/05/24 07:05:53;;;;;;;2.25;0.57;;;;;;;;;;4994656;28;20057;-62
2021/05/24 07:08:38;;;;;;;2.80;0.85;;;;;;;;;;4994815;28;20049;-62
2021/05/24 07:11:24;;;;;;;1.05;0.57;;;;;;;;;;4991951;28;20104;-62
2021/05/24 07:14:09;;;;;;;2.08;0.63;;;;;;;;;;4988574;28;20058;-62
2021/05/24 07:16:55;;;;;;;2.83;0.70;;;;;;;;;;4988259;28;20045;-62
2021/05/24 07:19:41;;;;;;;2.83;0.60;;;;;;;;;;4981487;28;20043;-62
2021/05/24 07:22:26;;;;;;;2.15;0.75;;;;;;;;;;4982579;28;20057;-62
2021/05/24 07:25:12;;;;;;;2.50;0.52;;;;;;;;;;5012858;28;20121;-62
2021/05/24 07:27:57;;;;;;;3.33;0.70;;;;;;;;;;5012975;28;20061;-62
2021/05/24 07:30:42;;;;;;;4.32;0.68;;;;;;;;;;5013412;28;20054;-62
2021/05/24 07:33:28;;;;;;;3.78;0.60;;;;;;;;;;5011644;28;20077;-62
2021/05/24 07:36:13;;;;;;;2.42;0.50;;;;;;;;;;4994178;28;20050;-62
2021/05/24 07:38:59;;;;;;;3.45;0.82;;;;;;;;;;4994062;28;20069;-62
2021/05/24 07:41:44;;;;;;;1.85;0.70;;;;;;;;;;4993804;28;20049;-62
2021/05/24 07:44:30;;;;;;;3.40;0.70;;;;;;;;;;5001299;28;20048;-62
2021/05/24 07:47:15;;;;;;;1.08;0.50;;;;;;;;;;5013528;28;20415;-63
2021/05/24 07:50:00;;;;;;;2.35;0.68;;;;;;;;;;5013158;28;20125;-62
2021/05/24 07:52:46;;;;;;;1.42;0.60;;;;;;;;;;5013484;28;20052;-62
2021/05/24 07:55:31;;;;;;;2.53;0.90;;;;;;;;;;5000310;28;20052;-62
2021/05/24 07:58:16;;;;;;;2.53;0.55;;;;;;;;;;4993813;28;20423;-62
2021/05/24 08:01:02;;;;;;;2.70;0.85;;;;;;;;;;4990661;28;20069;-62
2021/05/24 08:03:47;;;;;;;3.10;0.60;;;;;;;;;;4986243;28;20049;-63
2021/05/24 08:06:32;;;;;;;1.83;0.88;;;;;;;;;;5010376;28;20056;-62
2021/05/24 08:09:18;;;;;;;1.42;0.50;;;;;;;;;;5003870;28;20041;-61
2021/05/24 08:12:03;;;;;;;3.58;0.60;;;;;;;;;;4987894;28;20053;-62
2021/05/24 08:14:49;;;;;;;2.00;0.45;;;;;;;;;;4984859;28;20041;-61
2021/05/24 08:17:34;;;;;;;2.10;0.70;;;;;;;;;;4987078;28;20532;-62
2021/05/24 08:20:20;;;;;;;1.83;0.95;;;;;;;;;;4989169;28;20051;-62
2021/05/24 08:23:05;;;;;;;3.17;1.23;;;;;;;;;;4993241;28;20049;-62
2021/05/24 08:25:51;;;;;;;2.45;1.17;;;;;;;;;;5012581;28;20195;-62
2021/05/24 08:28:36;;;;;;;2.80;1.05;;;;;;;;;;4977763;28;20100;-62
2021/05/24 08:31:21;;;;;;;2.72;0.90;;;;;;;;;;4991911;28;20043;-62
2021/05/24 08:34:07;;;;;;;4.53;1.10;;;;;;;;;;4989028;28;20127;-62
2021/05/24 08:36:53;;;;;;;3.53;1.73;;;;;;;;;;4986996;28;20185;-62
2021/05/24 08:39:39;;;;;;;1.38;1.27;;;;;;;;;;4991116;28;20050;-61
2021/05/24 08:42:28;;;;;;;2.05;1.17;;;;;;;;;;4987329;28;20647;-62
2021/05/24 08:45:14;;;;;;;1.63;0.95;;;;;;;;;;4986319;28;20120;-62
2021/05/24 08:47:59;;;;;;;3.33;1.05;;;;;;;;;;4987533;28;20065;-62
2021/05/24 08:50:45;;;;;;;1.85;1.02;;;;;;;;;;4985496;28;20111;-62
2021/05/24 08:53:31;;;;;;;2.80;0.90;;;;;;;;;;4986274;28;20045;-62
2021/05/24 08:56:16;;;;;;;3.08;1.10;;;;;;;;;;4984799;28;20057;-62
2021/05/24 08:59:02;;;;;;;1.27;0.80;;;;;;;;;;4990666;28;20061;-62
2021/05/24 09:01:48;;;;;;;2.03;0.77;;;;;;;;;;4991073;28;20047;-62
2021/05/24 09:04:40;;;;;;;3.08;0.88;;;;;;;;;;4988624;28;20076;-62
2021/05/24 09:07:25;;;;;;;1.92;0.90;;;;;;;;;;4990816;28;20046;-62
2021/05/24 09:10:10;;;;;;;1.80;0.90;;;;;;;;;;4988942;28;20420;-62
2021/05/24 09:12:56;;;;;;;3.00;1.23;;;;;;;;;;4995715;28;20249;-62
2021/05/24 09:15:42;;;;;;;1.85;1.17;;;;;;;;;;4996472;28;20177;-62
2021/05/24 09:18:27;;;;;;;1.13;0.93;;;;;;;;;;4996342;28;20050;-62
2021/05/24 09:21:13;;;;;;;2.17;1.25;;;;;;;;;;4996136;28;20504;-62
2021/05/24 09:24:18;;;;;;;1.48;0.82;;;;;;;;;;4991697;28;20050;-62
2021/05/24 09:27:04;;;;;;;1.88;1.08;;;;;;;;;;4991839;28;20181;-62
2021/05/24 09:29:51;;;;;;;2.95;1.00;;;;;;;;;;4995730;28;20770;-62
2021/05/24 09:32:38;;;;;;;2.00;1.20;;;;;;;;;;4988303;28;20112;-62
2021/05/24 09:35:23;;;;;;;2.63;1.00;;;;;;;;;;4986483;28;20042;-62
2021/05/24 09:38:11;;;;;;;3.25;1.20;;;;;;;;;;4981044;28;20053;-62
2021/05/24 09:40:58;;;;;;;2.10;0.82;;;;;;;;;;5001813;28;20391;-62
2021/05/24 09:43:46;;;;;;;3.03;1.55;;;;;;;;;;5002396;28;20046;-62
2021/05/24 09:46:32;;;;;;;1.50;1.00;;;;;;;;;;4978298;28;20520;-62
2021/05/24 09:49:17;;;;;;;3.53;1.20;;;;;;;;;;4994127;28;20060;-62
2021/05/24 09:52:02;;;;;;;3.53;0.82;;;;;;;;;;5006224;28;20420;-63
2021/05/24 09:54:48;;;;;;;3.47;1.25;;;;;;;;;;4981702;28;20142;-61
2021/05/24 09:57:34;;;;;;;3.47;1.17;;;;;;;;;;4980583;28;20628;-62
2021/05/24 10:00:23;;;;;;;3.10;1.15;;;;;;;;;;4995336;28;20068;-62
2021/05/24 10:03:11;;;;;;;3.20;1.50;;;;;;;;;;5004358;28;20133;-62
2021/05/24 10:05:57;;;;;;;4.10;1.08;;;;;;;;;;4996060;28;20050;-62
2021/05/24 10:08:43;;;;;;;2.65;1.17;;;;;;;;;;4979974;28;20157;-61
2021/05/24 10:11:29;;;;;;;2.40;1.25;;;;;;;;;;4994769;28;20069;-62
2021/05/24 10:14:16;;;;;;;3.17;1.48;;;;;;;;;;4993169;28;20059;-63
2021/05/24 10:17:03;;;;;;;2.28;1.30;;;;;;;;;;4995368;28;20070;-62
2021/05/24 10:19:48;;;;;;;2.13;1.25;;;;;;;;;;4994838;28;20189;-62
2021/05/24 10:22:33;;;;;;;2.38;1.33;;;;;;;;;;5002438;28;20488;-62
2021/05/24 10:25:19;;;;;;;2.65;1.40;;;;;;;;;;4994895;28;20055;-61
2021/05/24 10:28:05;;;;;;;2.83;1.50;;;;;;;;;;4994063;28;20066;-62
2021/05/24 10:30:50;;;;;;;2.65;1.33;;;;;;;;;;4981247;28;20524;-62
2021/05/24 10:33:42;;;;;;;3.25;1.95;;;;;;;;;;4997516;28;20077;-62
2021/05/24 10:36:31;;;;;;;2.67;1.37;;;;;;;;;;4994571;28;20636;-61
2021/05/24 10:39:20;;;;;;;1.77;1.30;;;;;;;;;;4994931;28;20055;-62
2021/05/24 10:42:09;;;;;;;2.28;1.40;;;;;;;;;;4994992;28;20129;-62
2021/05/24 10:44:54;;;;;;;3.47;1.45;;;;;;;;;;4981877;28;20057;-62
2021/05/24 10:47:50;;;;;;;3.15;1.38;;;;;;;;;;4993800;28;20101;-61
2021/05/24 10:50:36;;;;;;;2.20;1.42;;;;;;;;;;4980522;28;20065;-63
2021/05/24 10:53:21;;;;;;;2.88;1.10;;;;;;;;;;4995655;28;20061;-62
2021/05/24 10:56:06;;;;;;;2.75;1.35;;;;;;;;;;4997919;28;20519;-61
2021/05/24 10:58:52;;;;;;;4.18;1.50;;;;;;;;;;4993376;28;20519;-62
2021/05/24 11:01:57;;;;;;;3.70;1.58;;;;;;;;;;4994223;28;20174;-62
2021/05/24 11:04:49;;;;;;;3.42;2.05;;;;;;;;;;4979931;28;20046;-61
2021/05/24 11:07:38;;;;;;;1.97;1.20;;;;;;;;;;4994979;28;20065;-62
2021/05/24 11:10:24;;;;;;;3.38;1.85;;;;;;;;;;4995135;28;20097;-62
2021/05/24 11:13:10;;;;;;;2.03;1.35;;;;;;;;;;4989663;28;20073;-62
2021/05/24 11:15:56;;;;;;;3.47;1.50;;;;;;;;;;4989255;28;20056;-62
2021/05/24 11:18:41;;;;;;;3.20;1.40;;;;;;;;;;4985905;28;20038;-62
2021/05/24 11:21:27;;;;;;;2.08;1.13;;;;;;;;;;4984810;28;20053;-62
2021/05/24 11:27:20;;;;;;;2.85;1.33;;;;;;;;;;4999225;28;20132;-63
2021/05/24 11:30:26;;;;;;;2.35;1.10;;;;;;;;;;4997117;28;20054;-62
2021/05/24 11:33:30;;;;;;;1.80;1.10;;;;;;;;;;4989624;28;20053;-62
2021/05/24 11:36:15;;;;;;;1.67;1.30;;;;;;;;;;4993581;28;20065;-62
2021/05/24 11:39:16;;;;;;;3.97;1.35;;;;;;;;;;4993434;28;20049;-62
2021/05/24 11:42:06;;;;;;;1.98;1.10;;;;;;;;;;4993301;28;20054;-62
2021/05/24 11:44:51;;;;;;;2.10;1.65;;;;;;;;;;4981171;28;20042;-63
2021/05/24 11:47:37;;;;;;;2.40;1.15;;;;;;;;;;4995124;28;20057;-64
2021/05/24 11:50:24;;;;;;;3.30;1.20;;;;;;;;;;4994411;28;20113;-64
2021/05/24 11:53:15;;;;;;;3.40;1.30;;;;;;;;;;4972837;28;20055;-64
2021/05/24 11:56:07;;;;;;;2.70;1.00;;;;;;;;;;4988083;28;20057;-64
2021/05/24 11:58:59;;;;;;;1.63;0.63;;;;;;;;;;4985344;28;20049;-64
2021/05/24 12:01:46;;;;;;;2.50;0.80;;;;;;;;;;4993001;28;20057;-64
2021/05/24 12:04:36;;;;;;;2.30;0.70;;;;;;;;;;4976537;28;20046;-64
2021/05/24 12:07:22;;;;;;;0.85;0.70;;;;;;;;;;4993261;28;20049;-64
2021/05/24 12:10:10;;;;;;;2.40;0.93;;;;;;;;;;4993110;28;20415;-64
2021/05/24 12:12:57;;;;;;;2.47;0.90;;;;;;;;;;4993386;28;20553;-64
2021/05/24 12:15:42;;;;;;;2.28;1.00;;;;;;;;;;4992953;28;20518;-64
2021/05/24 12:18:29;;;;;;;0.93;0.70;;;;;;;;;;4993066;28;20066;-63
2021/05/24 12:21:15;;;;;;;3.50;1.10;;;;;;;;;;4991920;28;20069;-64
2021/05/24 12:24:01;;;;;;;1.63;0.80;;;;;;;;;;4992080;28;20049;-64
2021/05/24 12:26:54;;;;;;;3.05;1.02;;;;;;;;;;4973486;28;20047;-64
2021/05/24 12:30:05;;;;;;;3.13;1.20;;;;;;;;;;4985935;28;20508;-65
2021/05/24 12:32:54;;;;;;;1.52;1.08;;;;;;;;;;4964585;28;20485;-64
2021/05/24 12:35:43;;;;;;;1.95;1.02;;;;;;;;;;4991932;28;20056;-64
2021/05/24 12:38:32;;;;;;;1.17;1.08;;;;;;;;;;4991887;28;20047;-64
2021/05/24 12:41:19;;;;;;;3.20;1.20;;;;;;;;;;5000352;28;20053;-64
2021/05/24 12:44:05;;;;;;;3.47;1.50;;;;;;;;;;4991858;28;20050;-65
2021/05/24 12:46:52;;;;;;;2.63;2.00;;;;;;;;;;4978748;28;20121;-64
2021/05/24 12:49:38;;;;;;;2.40;1.50;;;;;;;;;;4993332;28;20081;-64
2021/05/24 12:52:23;;;;;;;3.28;1.45;;;;;;;;;;4993690;28;20054;-64
2021/05/24 12:55:15;;;;;;;3.45;1.92;;;;;;;;;;4992624;28;20450;-64
2021/05/24 12:58:00;;;;;;;3.08;1.65;;;;;;;;;;4992412;28;20053;-64
2021/05/24 13:00:55;;;;;;;3.28;1.83;;;;;;;;;;4981816;28;20519;-64
2021/05/24 13:03:51;;;;;;;1.30;1.10;;;;;;;;;;4992285;28;20574;-64
2021/05/24 13:06:37;;;;;;;1.08;0.43;;;;;;;;;;4976957;28;20496;-63
2021/05/24 13:09:24;;;;;;;0.70;0.40;;;;;;;;;;4992336;28;20056;-63
2021/05/24 13:12:17;;;;;;;1.27;0.40;;;;;;;;;;4992544;28;20412;-63
2021/05/24 13:15:04;;;;;;;;;;;;;;;;;;4992924;28;20049;-64
2021/05/24 13:21:15;;;;;;;2.58;1.00;;;;;;;;;;4978244;28;20077;-64
2021/05/24 13:27:44;;;;;;;1.10;0.70;;;;;;;;;;4961732;28;20050;-63
2021/05/24 13:30:32;;;;;;;0.70;0.60;;;;;;;;;;4992163;28;20293;-65
2021/05/24 13:33:35;;;;;;;1.38;0.57;;;;;;;;;;4992888;28;20500;-64
2021/05/24 13:36:23;;;;;;;1.83;0.60;;;;;;;;;;4993267;28;20100;-65
2021/05/24 13:39:13;;;;;;;0.82;0.40;;;;;;;;;;4992614;28;20074;-64
2021/05/24 13:42:02;;;;;;;1.35;0.88;;;;;;;;;;4997519;28;20655;-65
2021/05/24 13:44:47;;;;;;;1.38;0.85;;;;;;;;;;4964364;28;20045;-64
2021/05/24 13:47:32;;;;;;;1.95;1.52;;;;;;;;;;4992944;28;20054;-65
2021/05/24 13:50:18;;;;;;;1.42;1.25;;;;;;;;;;4993319;28;20161;-64
2021/05/24 13:53:04;;;;;;;2.25;1.17;;;;;;;;;;4993170;28;20054;-64
2021/05/24 13:55:49;;;;;;;2.33;0.90;;;;;;;;;;4992291;28;20308;-64
2021/05/24 13:58:34;;;;;;;1.65;1.08;;;;;;;;;;4994162;28;20049;-64
2021/05/24 14:01:20;;;;;;;2.05;0.80;;;;;;;;;;4996478;28;20487;-64
2021/05/24 14:04:05;;;;;;;1.73;0.90;;;;;;;;;;4982841;28;20054;-64
2021/05/24 14:06:51;;;;;;;1.77;0.80;;;;;;;;;;4992137;28;20046;-64
2021/05/24 14:09:38;;;;;;;1.83;0.70;;;;;;;;;;4995584;28;20054;-64
2021/05/24 14:12:23;;;;;;;0.55;0.52;;;;;;;;;;5012654;28;20526;-64
2021/05/24 14:15:09;;;;;;;0.63;0.60;;;;;;;;;;5014523;28;20181;-64
2021/05/24 14:17:56;;;;;;;0.70;0.50;;;;;;;;;;5014823;28;20054;-64
2021/05/24 14:20:41;;;;;;;0.60;0.40;;;;;;;;;;5013269;28;20147;-64
2021/05/24 14:23:27;;;;;;;0.57;0.57;;;;;;;;;;4995150;28;20049;-63
2021/05/24 14:26:12;;;;;;;3.60;0.70;;;;;;;;;;4994923;28;20116;-64
2021/05/24 14:28:58;;;;;;;0.60;0.50;;;;;;;;;;4995212;28;20054;-64
2021/05/24 14:31:44;;;;;;;1.30;0.70;;;;;;;;;;4996431;28;20533;-63
2021/05/24 14:34:29;;;;;;;2.65;0.90;;;;;;;;;;5014727;28;20057;-64
2021/05/24 14:37:15;;;;;;;1.55;0.77;;;;;;;;;;5014511;28;20075;-65
2021/05/24 14:40:01;;;;;;;1.75;0.70;;;;;;;;;;5013967;28;20054;-64
2021/05/24 14:42:46;;;;;;;1.02;0.80;;;;;;;;;;5001651;28;20519;-64
2021/05/24 14:45:33;;;;;;;1.50;0.60;;;;;;;;;;4994786;28;20058;-64
2021/05/24 14:48:19;;;;;;;1.10;0.82;;;;;;;;;;4994750;28;20057;-64
2021/05/24 14:51:06;;;;;;;1.92;1.00;;;;;;;;;;4994353;28;20049;-63
2021/05/24 14:53:51;;;;;;;1.48;0.85;;;;;;;;;;5012604;28;20510;-64
2021/05/24 14:56:36;;;;;;;0.93;0.85;;;;;;;;;;5001725;28;20053;-63
2021/05/24 14:59:21;;;;;;;1.05;0.90;;;;;;;;;;4985305;28;20045;-64
2021/05/24 15:02:07;;;;;;;3.42;1.23;;;;;;;;;;4985557;28;20086;-65
2021/05/24 15:04:52;;;;;;;2.80;1.38;;;;;;;;;;4985457;28;20047;-63
2021/05/24 15:07:38;;;;;;;1.75;1.08;;;;;;;;;;4980311;28;20058;-64
2021/05/24 15:10:23;;;;;;;1.98;1.00;;;;;;;;;;4973922;28;20108;-64
2021/05/24 15:13:10;;;;;;;1.10;0.70;;;;;;;;;;4988562;28;20144;-64
2021/05/24 15:15:55;;;;;;;1.25;0.82;;;;;;;;;;5014181;28;20416;-63
2021/05/24 15:18:41;;;;;;;1.77;1.13;;;;;;;;;;5014003;28;20152;-65
2021/05/24 15:21:26;;;;;;;1.27;0.90;;;;;;;;;;4998511;28;20172;-64
2021/05/24 15:24:11;;;;;;;1.40;1.10;;;;;;;;;;5001487;28;20117;-64
2021/05/24 15:26:57;;;;;;;1.52;0.90;;;;;;;;;;5007285;28;20053;-64
2021/05/24 15:29:43;;;;;;;1.17;0.88;;;;;;;;;;4994094;28;20054;-63
2021/05/24 15:32:28;;;;;;;1.25;0.80;;;;;;;;;;4993518;28;20200;-64
2021/05/24 15:35:13;;;;;;;2.63;1.00;;;;;;;;;;5011268;28;20056;-64
2021/05/24 15:37:59;;;;;;;1.15;0.95;;;;;;;;;;5013622;28;20056;-64
2021/05/24 15:40:44;;;;;;;1.17;0.90;;;;;;;;;;5012867;28;20129;-63
2021/05/24 15:43:30;;;;;;;1.48;1.02;;;;;;;;;;5012398;28;20467;-63
2021/05/24 15:46:16;;;;;;;1.85;1.08;;;;;;;;;;4994732;28;20053;-63
2021/05/24 15:49:01;;;;;;;1.35;1.25;;;;;;;;;;4992136;28;20050;-64
2021/05/24 15:51:47;;;;;;;1.20;1.10;;;;;;;;;;4992665;28;20436;-64
2021/05/24 15:54:32;;;;;;;1.55;1.33;;;;;;;;;;4999651;28;20049;-64
2021/05/24 15:57:18;;;;;;;2.53;1.65;;;;;;;;;;5013227;28;20409;-63
2021/05/24 16:00:03;;;;;;;1.77;1.48;;;;;;;;;;5013235;28;20056;-63
2021/05/24 16:02:56;;;;;;;1.77;1.63;;;;;;;;;;5013204;28;20084;-63
2021/05/24 16:05:42;;;;;;;1.98;1.70;;;;;;;;;;4999815;28;20053;-63
2021/05/24 16:08:27;;;;;;;1.48;1.38;;;;;;;;;;4985150;28;20057;-63
2021/05/24 16:11:12;;;;;;;1.88;1.50;;;;;;;;;;4972612;28;20127;-63
2021/05/24 16:13:58;;;;;;;1.60;1.35;;;;;;;;;;4975037;28;20046;-63
2021/05/24 16:16:44;;;;;;;1.67;1.20;;;;;;;;;;4991623;28;20061;-63
2021/05/24 16:19:30;;;;;;;1.77;1.58;;;;;;;;;;4990201;28;20046;-63
2021/05/24 16:22:16;;;;;;;1.50;1.40;;;;;;;;;;4989887;28;20173;-63
2021/05/24 16:27:46;;;;;;;1.00;0.73;;;;;;;;;;5011262;28;20052;-63
2021/05/24 16:30:32;;;;;;;1.40;0.68;;;;;;;;;;5009584;28;20053;-63
2021/05/24 16:33:18;;;;;;;0.60;0.60;;;;;;;;;;5009367;28;20060;-63
2021/05/24 16:36:03;;;;;;;0.45;0.45;;;;;;;;;;5003688;28;20100;-64
2021/05/24 16:38:49;;;;;;;0.70;0.70;;;;;;;;;;4990916;28;20705;-63
2021/05/24 16:41:34;;;;;;;2.95;0.70;;;;;;;;;;4990016;28;20069;-63
2021/05/24 16:44:19;;;;;;;1.33;0.60;;;;;;;;;;4990121;28;20101;-63
2021/05/24 16:47:04;;;;;;;0.70;0.50;;;;;;;;;;4991163;28;20105;-63
2021/05/24 16:49:50;;;;;;;0.80;0.60;;;;;;;;;;4991759;28;20054;-63